sensor_id;sensor_type;location;lat;lon;timestamp;P1;durP1;ratioP1;P2;durP2;ratioP2
17365;SDS011;8800;50.118;9.900;2023-06-10T00:00:39;10.23;;;7.60;;
17365;SDS011;8800;50.118;9.900;2023-06-10T00:03:07;9.95;;;7.38;;
17365;SDS011;8800;50.118;9.900;2023-06-10T00:05:33;12.90;;;7.60;;
17365;SDS011;8800;50.118;9.900;2023-06-10T00:08:01;12.27;;;7.50;;
17365;SDS011;8800;50.118;9.900;2023-06-10T00:10:32;13.15;;;7.95;;
17365;SDS011;8800;50.118;9.900;2023-06-10T00:12:58;12.23;;;7.72;;
17365;SDS011;8800;50.118;9.900;2023-06-10T00:15:27;10.05;;;7.65;;
17365;SDS011;8800;50.118;9.900;2023-06-10T00:17:54;10.15;;;7.80;;
17365;SDS011;8800;50.118;9.900;2023-06-10T00:20:21;11.07;;;8.60;;
17365;SDS011;8800;50.118;9.900;2023-06-10T00:22:48;9.77;;;7.93;;
17365;SDS011;8800;50.118;9.900;2023-06-10T00:25:15;10.23;;;7.70;;
17365;SDS011;8800;50.118;9.900;2023-06-10T00:27:42;10.57;;;7.00;;
17365;SDS011;8800;50.118;9.900;2023-06-10T00:30:09;14.70;;;7.93;;
17365;SDS011;8800;50.118;9.900;2023-06-10T00:32:37;11.20;;;7.40;;
17365;SDS011;8800;50.118;9.900;2023-06-10T00:35:04;13.65;;;7.30;;
17365;SDS011;8800;50.118;9.900;2023-06-10T00:37:31;10.20;;;8.23;;
17365;SDS011;8800;50.118;9.900;2023-06-10T00:39:57;11.38;;;8.05;;
17365;SDS011;8800;50.118;9.900;2023-06-10T00:42:24;8.77;;;7.38;;
17365;SDS011;8800;50.118;9.900;2023-06-10T00:44:51;8.77;;;7.25;;
17365;SDS011;8800;50.118;9.900;2023-06-10T00:47:17;10.57;;;8.10;;
17365;SDS011;8800;50.118;9.900;2023-06-10T00:49:46;11.52;;;7.50;;
17365;SDS011;8800;50.118;9.900;2023-06-10T00:52:12;12.18;;;7.88;;
17365;SDS011;8800;50.118;9.900;2023-06-10T00:54:40;12.60;;;7.60;;
17365;SDS011;8800;50.118;9.900;2023-06-10T00:57:06;9.52;;;7.85;;
17365;SDS011;8800;50.118;9.900;2023-06-10T00:59:33;10.93;;;8.30;;
17365;SDS011;8800;50.118;9.900;2023-06-10T01:02:00;8.80;;;7.53;;
17365;SDS011;8800;50.118;9.900;2023-06-10T01:04:27;10.15;;;7.88;;
17365;SDS011;8800;50.118;9.900;2023-06-10T01:06:57;12.13;;;7.68;;
17365;SDS011;8800;50.118;9.900;2023-06-10T01:09:29;9.25;;;7.15;;
17365;SDS011;8800;50.118;9.900;2023-06-10T01:12:01;10.10;;;7.40;;
17365;SDS011;8800;50.118;9.900;2023-06-10T01:14:28;12.80;;;7.60;;
17365;SDS011;8800;50.118;9.900;2023-06-10T01:16:56;9.80;;;7.55;;
17365;SDS011;8800;50.118;9.900;2023-06-10T01:19:25;9.18;;;7.55;;
17365;SDS011;8800;50.118;9.900;2023-06-10T01:21:54;9.60;;;7.70;;
17365;SDS011;8800;50.118;9.900;2023-06-10T01:24:21;11.63;;;7.20;;
17365;SDS011;8800;50.118;9.900;2023-06-10T01:26:48;12.45;;;8.23;;
17365;SDS011;8800;50.118;9.900;2023-06-10T01:29:17;9.68;;;7.93;;
17365;SDS011;8800;50.118;9.900;2023-06-10T01:31:47;10.90;;;7.72;;
17365;SDS011;8800;50.118;9.900;2023-06-10T01:34:16;9.25;;;7.25;;
17365;SDS011;8800;50.118;9.900;2023-06-10T01:36:43;14.02;;;7.78;;
17365;SDS011;8800;50.118;9.900;2023-06-10T01:39:12;10.13;;;7.63;;
17365;SDS011;8800;50.118;9.900;2023-06-10T01:41:39;10.57;;;7.97;;
17365;SDS011;8800;50.118;9.900;2023-06-10T01:44:06;12.70;;;7.90;;
17365;SDS011;8800;50.118;9.900;2023-06-10T01:46:32;11.75;;;8.07;;
17365;SDS011;8800;50.118;9.900;2023-06-10T01:48:59;9.88;;;7.57;;
17365;SDS011;8800;50.118;9.900;2023-06-10T01:51:25;9.18;;;7.82;;
17365;SDS011;8800;50.118;9.900;2023-06-10T01:53:52;11.48;;;7.63;;
17365;SDS011;8800;50.118;9.900;2023-06-10T01:56:20;9.98;;;7.55;;
17365;SDS011;8800;50.118;9.900;2023-06-10T01:58:46;9.70;;;8.00;;
17365;SDS011;8800;50.118;9.900;2023-06-10T02:01:13;12.52;;;8.45;;
17365;SDS011;8800;50.118;9.900;2023-06-10T02:03:39;10.52;;;7.93;;
17365;SDS011;8800;50.118;9.900;2023-06-10T02:06:06;10.63;;;8.23;;
17365;SDS011;8800;50.118;9.900;2023-06-10T02:08:32;13.05;;;8.57;;
17365;SDS011;8800;50.118;9.900;2023-06-10T02:10:59;11.98;;;9.00;;
17365;SDS011;8800;50.118;9.900;2023-06-10T02:13:28;13.55;;;8.07;;
17365;SDS011;8800;50.118;9.900;2023-06-10T02:15:54;13.02;;;7.70;;
17365;SDS011;8800;50.118;9.900;2023-06-10T02:18:21;11.73;;;8.38;;
17365;SDS011;8800;50.118;9.900;2023-06-10T02:20:48;11.98;;;8.82;;
17365;SDS011;8800;50.118;9.900;2023-06-10T02:23:14;9.98;;;7.97;;
17365;SDS011;8800;50.118;9.900;2023-06-10T02:25:41;9.80;;;8.00;;
17365;SDS011;8800;50.118;9.900;2023-06-10T02:28:07;12.15;;;8.45;;
17365;SDS011;8800;50.118;9.900;2023-06-10T02:30:36;12.07;;;8.10;;
17365;SDS011;8800;50.118;9.900;2023-06-10T02:33:06;10.32;;;8.23;;
17365;SDS011;8800;50.118;9.900;2023-06-10T02:35:34;11.30;;;8.20;;
17365;SDS011;8800;50.118;9.900;2023-06-10T02:38:01;11.32;;;8.15;;
17365;SDS011;8800;50.118;9.900;2023-06-10T02:40:28;10.95;;;7.65;;
17365;SDS011;8800;50.118;9.900;2023-06-10T02:42:54;10.38;;;8.20;;
17365;SDS011;8800;50.118;9.900;2023-06-10T02:45:21;10.70;;;7.88;;
17365;SDS011;8800;50.118;9.900;2023-06-10T02:47:49;14.65;;;8.18;;
17365;SDS011;8800;50.118;9.900;2023-06-10T02:50:16;10.82;;;8.05;;
17365;SDS011;8800;50.118;9.900;2023-06-10T02:52:43;10.02;;;7.55;;
17365;SDS011;8800;50.118;9.900;2023-06-10T02:55:10;10.10;;;8.07;;
17365;SDS011;8800;50.118;9.900;2023-06-10T02:57:36;11.52;;;7.97;;
17365;SDS011;8800;50.118;9.900;2023-06-10T03:00:03;11.15;;;8.32;;
17365;SDS011;8800;50.118;9.900;2023-06-10T03:02:34;11.02;;;8.05;;
17365;SDS011;8800;50.118;9.900;2023-06-10T03:05:03;11.90;;;8.65;;
17365;SDS011;8800;50.118;9.900;2023-06-10T03:07:30;11.05;;;8.88;;
17365;SDS011;8800;50.118;9.900;2023-06-10T03:09:57;12.43;;;8.20;;
17365;SDS011;8800;50.118;9.900;2023-06-10T03:12:24;15.23;;;9.75;;
17365;SDS011;8800;50.118;9.900;2023-06-10T03:14:50;13.10;;;9.63;;
17365;SDS011;8800;50.118;9.900;2023-06-10T03:17:17;12.95;;;8.55;;
17365;SDS011;8800;50.118;9.900;2023-06-10T03:19:43;11.38;;;8.95;;
17365;SDS011;8800;50.118;9.900;2023-06-10T03:22:12;11.55;;;8.38;;
17365;SDS011;8800;50.118;9.900;2023-06-10T03:24:38;12.00;;;8.88;;
17365;SDS011;8800;50.118;9.900;2023-06-10T03:27:06;16.63;;;8.63;;
17365;SDS011;8800;50.118;9.900;2023-06-10T03:29:33;11.38;;;8.70;;
17365;SDS011;8800;50.118;9.900;2023-06-10T03:32:00;10.65;;;8.25;;
17365;SDS011;8800;50.118;9.900;2023-06-10T03:34:26;13.02;;;8.93;;
17365;SDS011;8800;50.118;9.900;2023-06-10T03:36:53;11.60;;;8.48;;
17365;SDS011;8800;50.118;9.900;2023-06-10T03:39:21;12.43;;;8.45;;
17365;SDS011;8800;50.118;9.900;2023-06-10T03:41:48;12.80;;;8.52;;
17365;SDS011;8800;50.118;9.900;2023-06-10T03:44:15;11.95;;;8.30;;
17365;SDS011;8800;50.118;9.900;2023-06-10T03:46:42;10.80;;;7.57;;
17365;SDS011;8800;50.118;9.900;2023-06-10T03:49:09;11.88;;;8.32;;
17365;SDS011;8800;50.118;9.900;2023-06-10T03:51:36;9.90;;;7.97;;
17365;SDS011;8800;50.118;9.900;2023-06-10T03:54:02;10.25;;;8.15;;
17365;SDS011;8800;50.118;9.900;2023-06-10T03:56:30;12.05;;;8.30;;
17365;SDS011;8800;50.118;9.900;2023-06-10T03:58:57;11.85;;;7.57;;
17365;SDS011;8800;50.118;9.900;2023-06-10T04:01:24;11.30;;;8.30;;
17365;SDS011;8800;50.118;9.900;2023-06-10T04:03:50;12.07;;;8.40;;
17365;SDS011;8800;50.118;9.900;2023-06-10T04:06:19;11.85;;;7.80;;
17365;SDS011;8800;50.118;9.900;2023-06-10T04:08:47;11.65;;;8.07;;
17365;SDS011;8800;50.118;9.900;2023-06-10T04:11:15;12.80;;;7.70;;
17365;SDS011;8800;50.118;9.900;2023-06-10T04:13:43;9.82;;;7.38;;
17365;SDS011;8800;50.118;9.900;2023-06-10T04:16:10;11.32;;;7.75;;
17365;SDS011;8800;50.118;9.900;2023-06-10T04:18:36;9.48;;;7.68;;
17365;SDS011;8800;50.118;9.900;2023-06-10T04:21:03;12.65;;;8.30;;
17365;SDS011;8800;50.118;9.900;2023-06-10T04:23:30;10.90;;;7.70;;
17365;SDS011;8800;50.118;9.900;2023-06-10T04:25:56;9.02;;;7.55;;
17365;SDS011;8800;50.118;9.900;2023-06-10T04:28:24;10.40;;;7.60;;
17365;SDS011;8800;50.118;9.900;2023-06-10T04:30:52;10.10;;;7.85;;
17365;SDS011;8800;50.118;9.900;2023-06-10T04:33:19;15.20;;;8.35;;
17365;SDS011;8800;50.118;9.900;2023-06-10T04:35:45;10.85;;;7.68;;
17365;SDS011;8800;50.118;9.900;2023-06-10T04:38:12;11.00;;;7.78;;
17365;SDS011;8800;50.118;9.900;2023-06-10T04:40:39;10.55;;;8.35;;
17365;SDS011;8800;50.118;9.900;2023-06-10T04:43:06;10.70;;;7.45;;
17365;SDS011;8800;50.118;9.900;2023-06-10T04:45:33;9.55;;;7.22;;
17365;SDS011;8800;50.118;9.900;2023-06-10T04:48:01;10.32;;;7.53;;
17365;SDS011;8800;50.118;9.900;2023-06-10T04:50:28;10.05;;;7.15;;
17365;SDS011;8800;50.118;9.900;2023-06-10T04:52:54;9.13;;;7.10;;
17365;SDS011;8800;50.118;9.900;2023-06-10T04:55:22;11.98;;;7.50;;
17365;SDS011;8800;50.118;9.900;2023-06-10T04:57:48;9.82;;;7.18;;
17365;SDS011;8800;50.118;9.900;2023-06-10T05:00:15;10.30;;;6.93;;
17365;SDS011;8800;50.118;9.900;2023-06-10T05:02:42;10.43;;;6.75;;
17365;SDS011;8800;50.118;9.900;2023-06-10T05:05:11;10.63;;;6.53;;
17365;SDS011;8800;50.118;9.900;2023-06-10T05:07:38;9.65;;;7.05;;
17365;SDS011;8800;50.118;9.900;2023-06-10T05:10:04;12.40;;;7.03;;
17365;SDS011;8800;50.118;9.900;2023-06-10T05:12:31;12.35;;;6.97;;
17365;SDS011;8800;50.118;9.900;2023-06-10T05:14:57;10.38;;;7.00;;
17365;SDS011;8800;50.118;9.900;2023-06-10T05:17:24;12.43;;;7.07;;
17365;SDS011;8800;50.118;9.900;2023-06-10T05:19:51;10.38;;;6.95;;
17365;SDS011;8800;50.118;9.900;2023-06-10T05:22:19;8.63;;;6.40;;
17365;SDS011;8800;50.118;9.900;2023-06-10T05:24:46;10.90;;;7.00;;
17365;SDS011;8800;50.118;9.900;2023-06-10T05:27:12;12.23;;;6.93;;
17365;SDS011;8800;50.118;9.900;2023-06-10T05:29:39;9.85;;;7.07;;
17365;SDS011;8800;50.118;9.900;2023-06-10T05:32:05;9.98;;;6.47;;
17365;SDS011;8800;50.118;9.900;2023-06-10T05:34:32;11.20;;;7.18;;
17365;SDS011;8800;50.118;9.900;2023-06-10T05:36:59;9.25;;;7.13;;
17365;SDS011;8800;50.118;9.900;2023-06-10T05:39:27;11.68;;;6.40;;
17365;SDS011;8800;50.118;9.900;2023-06-10T05:41:53;8.32;;;6.47;;
17365;SDS011;8800;50.118;9.900;2023-06-10T05:44:19;10.43;;;6.97;;
17365;SDS011;8800;50.118;9.900;2023-06-10T05:46:46;10.77;;;7.47;;
17365;SDS011;8800;50.118;9.900;2023-06-10T05:49:13;9.80;;;7.82;;
17365;SDS011;8800;50.118;9.900;2023-06-10T05:51:42;12.43;;;7.93;;
17365;SDS011;8800;50.118;9.900;2023-06-10T05:54:09;11.18;;;8.15;;
17365;SDS011;8800;50.118;9.900;2023-06-10T05:56:36;11.80;;;8.23;;
17365;SDS011;8800;50.118;9.900;2023-06-10T05:59:04;10.13;;;7.82;;
17365;SDS011;8800;50.118;9.900;2023-06-10T06:01:31;14.13;;;8.80;;
17365;SDS011;8800;50.118;9.900;2023-06-10T06:03:57;11.25;;;8.35;;
17365;SDS011;8800;50.118;9.900;2023-06-10T06:06:25;14.40;;;8.77;;
17365;SDS011;8800;50.118;9.900;2023-06-10T06:08:52;12.98;;;8.07;;
17365;SDS011;8800;50.118;9.900;2023-06-10T06:11:18;10.55;;;8.02;;
17365;SDS011;8800;50.118;9.900;2023-06-10T06:13:46;9.88;;;7.85;;
17365;SDS011;8800;50.118;9.900;2023-06-10T06:16:13;11.30;;;8.55;;
17365;SDS011;8800;50.118;9.900;2023-06-10T06:18:40;9.52;;;7.75;;
17365;SDS011;8800;50.118;9.900;2023-06-10T06:21:06;9.65;;;7.85;;
17365;SDS011;8800;50.118;9.900;2023-06-10T06:23:33;10.55;;;7.45;;
17365;SDS011;8800;50.118;9.900;2023-06-10T06:26:00;10.70;;;7.72;;
17365;SDS011;8800;50.118;9.900;2023-06-10T06:28:27;11.60;;;7.22;;
17365;SDS011;8800;50.118;9.900;2023-06-10T06:30:55;10.75;;;7.78;;
17365;SDS011;8800;50.118;9.900;2023-06-10T06:33:22;12.23;;;7.82;;
17365;SDS011;8800;50.118;9.900;2023-06-10T06:35:48;13.55;;;7.32;;
17365;SDS011;8800;50.118;9.900;2023-06-10T06:38:15;12.15;;;7.53;;
17365;SDS011;8800;50.118;9.900;2023-06-10T06:40:41;11.75;;;7.50;;
17365;SDS011;8800;50.118;9.900;2023-06-10T06:43:08;10.82;;;7.43;;
17365;SDS011;8800;50.118;9.900;2023-06-10T06:45:34;12.70;;;7.82;;
17365;SDS011;8800;50.118;9.900;2023-06-10T06:48:02;11.35;;;7.47;;
17365;SDS011;8800;50.118;9.900;2023-06-10T06:50:29;11.13;;;7.68;;
17365;SDS011;8800;50.118;9.900;2023-06-10T06:52:55;13.40;;;7.90;;
17365;SDS011;8800;50.118;9.900;2023-06-10T06:55:22;11.63;;;7.07;;
17365;SDS011;8800;50.118;9.900;2023-06-10T06:57:49;12.82;;;7.68;;
17365;SDS011;8800;50.118;9.900;2023-06-10T07:00:15;9.48;;;6.65;;
17365;SDS011;8800;50.118;9.900;2023-06-10T07:02:42;10.52;;;6.38;;
17365;SDS011;8800;50.118;9.900;2023-06-10T07:05:09;9.52;;;7.00;;
17365;SDS011;8800;50.118;9.900;2023-06-10T07:07:36;10.48;;;6.88;;
17365;SDS011;8800;50.118;9.900;2023-06-10T07:10:02;10.60;;;6.75;;
17365;SDS011;8800;50.118;9.900;2023-06-10T07:12:29;13.20;;;6.68;;
17365;SDS011;8800;50.118;9.900;2023-06-10T07:14:55;10.45;;;6.85;;
17365;SDS011;8800;50.118;9.900;2023-06-10T07:17:22;15.45;;;6.43;;
17365;SDS011;8800;50.118;9.900;2023-06-10T07:19:48;8.93;;;6.43;;
17365;SDS011;8800;50.118;9.900;2023-06-10T07:22:18;8.48;;;6.20;;
17365;SDS011;8800;50.118;9.900;2023-06-10T07:24:44;10.18;;;6.20;;
17365;SDS011;8800;50.118;9.900;2023-06-10T07:27:11;8.40;;;5.88;;
17365;SDS011;8800;50.118;9.900;2023-06-10T07:29:37;11.07;;;6.95;;
17365;SDS011;8800;50.118;9.900;2023-06-10T07:32:07;9.77;;;6.30;;
17365;SDS011;8800;50.118;9.900;2023-06-10T07:34:33;7.35;;;5.72;;
17365;SDS011;8800;50.118;9.900;2023-06-10T07:37:00;8.18;;;5.40;;
17365;SDS011;8800;50.118;9.900;2023-06-10T07:39:28;10.70;;;6.47;;
17365;SDS011;8800;50.118;9.900;2023-06-10T07:41:54;7.43;;;5.97;;
17365;SDS011;8800;50.118;9.900;2023-06-10T07:44:22;8.25;;;6.03;;
17365;SDS011;8800;50.118;9.900;2023-06-10T07:46:48;9.43;;;5.82;;
17365;SDS011;8800;50.118;9.900;2023-06-10T07:49:15;9.20;;;5.80;;
17365;SDS011;8800;50.118;9.900;2023-06-10T07:51:41;7.43;;;5.55;;
17365;SDS011;8800;50.118;9.900;2023-06-10T07:54:08;7.50;;;5.38;;
17365;SDS011;8800;50.118;9.900;2023-06-10T07:56:36;8.73;;;5.72;;
17365;SDS011;8800;50.118;9.900;2023-06-10T07:59:02;9.20;;;5.90;;
17365;SDS011;8800;50.118;9.900;2023-06-10T08:01:28;8.48;;;5.38;;
17365;SDS011;8800;50.118;9.900;2023-06-10T08:03:56;9.43;;;5.55;;
17365;SDS011;8800;50.118;9.900;2023-06-10T08:06:23;6.90;;;5.53;;
17365;SDS011;8800;50.118;9.900;2023-06-10T08:08:49;8.80;;;5.70;;
17365;SDS011;8800;50.118;9.900;2023-06-10T08:11:16;8.65;;;5.88;;
17365;SDS011;8800;50.118;9.900;2023-06-10T08:13:43;6.93;;;5.80;;
17365;SDS011;8800;50.118;9.900;2023-06-10T08:16:10;8.15;;;5.75;;
17365;SDS011;8800;50.118;9.900;2023-06-10T08:18:37;7.45;;;5.50;;
17365;SDS011;8800;50.118;9.900;2023-06-10T08:21:03;9.13;;;5.57;;
17365;SDS011;8800;50.118;9.900;2023-06-10T08:23:29;9.07;;;5.68;;
17365;SDS011;8800;50.118;9.900;2023-06-10T08:25:56;9.15;;;5.78;;
17365;SDS011;8800;50.118;9.900;2023-06-10T08:28:23;7.53;;;5.70;;
17365;SDS011;8800;50.118;9.900;2023-06-10T08:30:50;8.13;;;6.07;;
17365;SDS011;8800;50.118;9.900;2023-06-10T08:33:17;8.82;;;5.75;;
17365;SDS011;8800;50.118;9.900;2023-06-10T08:35:44;7.97;;;5.85;;
17365;SDS011;8800;50.118;9.900;2023-06-10T08:38:10;8.35;;;5.38;;
17365;SDS011;8800;50.118;9.900;2023-06-10T08:40:37;10.00;;;5.70;;
17365;SDS011;8800;50.118;9.900;2023-06-10T08:43:05;8.77;;;5.88;;
17365;SDS011;8800;50.118;9.900;2023-06-10T08:45:31;8.75;;;6.15;;
17365;SDS011;8800;50.118;9.900;2023-06-10T08:48:01;7.10;;;5.63;;
17365;SDS011;8800;50.118;9.900;2023-06-10T08:50:31;10.32;;;5.95;;
17365;SDS011;8800;50.118;9.900;2023-06-10T08:52:59;7.82;;;5.80;;
17365;SDS011;8800;50.118;9.900;2023-06-10T08:55:27;7.53;;;5.60;;
17365;SDS011;8800;50.118;9.900;2023-06-10T08:57:53;7.80;;;5.45;;
17365;SDS011;8800;50.118;9.900;2023-06-10T09:00:19;9.95;;;5.30;;
17365;SDS011;8800;50.118;9.900;2023-06-10T09:02:46;9.50;;;5.20;;
17365;SDS011;8800;50.118;9.900;2023-06-10T09:05:14;7.75;;;5.78;;
17365;SDS011;8800;50.118;9.900;2023-06-10T09:07:41;8.95;;;5.72;;
17365;SDS011;8800;50.118;9.900;2023-06-10T09:10:08;8.05;;;5.50;;
17365;SDS011;8800;50.118;9.900;2023-06-10T09:12:37;6.78;;;5.18;;
17365;SDS011;8800;50.118;9.900;2023-06-10T09:15:04;9.13;;;5.05;;
17365;SDS011;8800;50.118;9.900;2023-06-10T09:17:30;7.95;;;4.95;;
17365;SDS011;8800;50.118;9.900;2023-06-10T09:19:57;6.60;;;5.35;;
17365;SDS011;8800;50.118;9.900;2023-06-10T09:22:25;6.75;;;5.50;;
17365;SDS011;8800;50.118;9.900;2023-06-10T09:25:01;8.32;;;5.50;;
17365;SDS011;8800;50.118;9.900;2023-06-10T09:27:29;7.35;;;5.05;;
17365;SDS011;8800;50.118;9.900;2023-06-10T09:29:56;5.90;;;4.88;;
17365;SDS011;8800;50.118;9.900;2023-06-10T09:32:23;8.45;;;5.10;;
17365;SDS011;8800;50.118;9.900;2023-06-10T09:34:50;9.77;;;5.45;;
17365;SDS011;8800;50.118;9.900;2023-06-10T09:37:19;6.25;;;5.07;;
17365;SDS011;8800;50.118;9.900;2023-06-10T09:39:52;6.80;;;5.03;;
17365;SDS011;8800;50.118;9.900;2023-06-10T09:42:26;7.85;;;5.50;;
17365;SDS011;8800;50.118;9.900;2023-06-10T09:44:53;6.57;;;5.10;;
17365;SDS011;8800;50.118;9.900;2023-06-10T09:47:20;7.47;;;5.13;;
17365;SDS011;8800;50.118;9.900;2023-06-10T09:49:47;6.72;;;5.30;;
17365;SDS011;8800;50.118;9.900;2023-06-10T09:52:14;7.00;;;5.15;;
17365;SDS011;8800;50.118;9.900;2023-06-10T09:54:47;7.00;;;5.25;;
17365;SDS011;8800;50.118;9.900;2023-06-10T09:57:14;7.38;;;4.90;;
17365;SDS011;8800;50.118;9.900;2023-06-10T09:59:43;7.30;;;5.20;;
17365;SDS011;8800;50.118;9.900;2023-06-10T10:02:13;8.30;;;5.80;;
17365;SDS011;8800;50.118;9.900;2023-06-10T10:04:39;6.85;;;4.90;;
17365;SDS011;8800;50.118;9.900;2023-06-10T10:07:06;6.18;;;4.55;;
17365;SDS011;8800;50.118;9.900;2023-06-10T10:09:35;7.55;;;4.90;;
17365;SDS011;8800;50.118;9.900;2023-06-10T10:12:01;7.30;;;5.70;;
17365;SDS011;8800;50.118;9.900;2023-06-10T10:14:30;5.55;;;4.78;;
17365;SDS011;8800;50.118;9.900;2023-06-10T10:16:58;6.78;;;5.32;;
17365;SDS011;8800;50.118;9.900;2023-06-10T10:19:25;5.68;;;4.70;;
17365;SDS011;8800;50.118;9.900;2023-06-10T10:21:54;7.03;;;5.30;;
17365;SDS011;8800;50.118;9.900;2023-06-10T10:24:23;10.38;;;5.47;;
17365;SDS011;8800;50.118;9.900;2023-06-10T10:26:52;7.15;;;5.07;;
17365;SDS011;8800;50.118;9.900;2023-06-10T10:29:24;9.52;;;4.63;;
17365;SDS011;8800;50.118;9.900;2023-06-10T10:31:51;6.20;;;4.60;;
17365;SDS011;8800;50.118;9.900;2023-06-10T10:34:21;7.13;;;4.43;;
17365;SDS011;8800;50.118;9.900;2023-06-10T10:36:48;6.22;;;4.72;;
17365;SDS011;8800;50.118;9.900;2023-06-10T10:39:15;7.28;;;5.00;;
17365;SDS011;8800;50.118;9.900;2023-06-10T10:41:42;6.70;;;4.35;;
17365;SDS011;8800;50.118;9.900;2023-06-10T10:44:09;10.20;;;4.82;;
17365;SDS011;8800;50.118;9.900;2023-06-10T10:46:41;6.88;;;5.05;;
17365;SDS011;8800;50.118;9.900;2023-06-10T10:49:09;7.45;;;5.00;;
17365;SDS011;8800;50.118;9.900;2023-06-10T10:51:37;7.50;;;4.47;;
17365;SDS011;8800;50.118;9.900;2023-06-10T10:54:09;7.05;;;4.60;;
17365;SDS011;8800;50.118;9.900;2023-06-10T10:56:36;6.03;;;4.20;;
17365;SDS011;8800;50.118;9.900;2023-06-10T10:59:04;6.45;;;4.20;;
17365;SDS011;8800;50.118;9.900;2023-06-10T11:01:39;5.63;;;3.85;;
17365;SDS011;8800;50.118;9.900;2023-06-10T11:04:06;5.25;;;4.30;;
17365;SDS011;8800;50.118;9.900;2023-06-10T11:06:34;5.72;;;4.13;;
17365;SDS011;8800;50.118;9.900;2023-06-10T11:09:01;6.53;;;4.15;;
17365;SDS011;8800;50.118;9.900;2023-06-10T11:11:49;5.28;;;3.75;;
17365;SDS011;8800;50.118;9.900;2023-06-10T11:14:16;5.43;;;4.22;;
17365;SDS011;8800;50.118;9.900;2023-06-10T11:16:53;6.07;;;3.90;;
17365;SDS011;8800;50.118;9.900;2023-06-10T11:19:32;5.57;;;3.80;;
17365;SDS011;8800;50.118;9.900;2023-06-10T11:22:01;4.00;;;3.50;;
17365;SDS011;8800;50.118;9.900;2023-06-10T11:24:28;4.47;;;3.38;;
17365;SDS011;8800;50.118;9.900;2023-06-10T11:26:55;5.80;;;3.30;;
17365;SDS011;8800;50.118;9.900;2023-06-10T11:29:21;5.20;;;2.90;;
17365;SDS011;8800;50.118;9.900;2023-06-10T11:31:51;4.90;;;3.30;;
17365;SDS011;8800;50.118;9.900;2023-06-10T11:34:21;5.45;;;2.95;;
17365;SDS011;8800;50.118;9.900;2023-06-10T11:36:49;3.83;;;2.90;;
17365;SDS011;8800;50.118;9.900;2023-06-10T11:39:18;4.03;;;2.78;;
17365;SDS011;8800;50.118;9.900;2023-06-10T11:41:45;4.68;;;3.15;;
17365;SDS011;8800;50.118;9.900;2023-06-10T11:44:12;5.47;;;3.22;;
17365;SDS011;8800;50.118;9.900;2023-06-10T11:46:39;7.22;;;3.42;;
17365;SDS011;8800;50.118;9.900;2023-06-10T11:49:07;5.50;;;3.13;;
17365;SDS011;8800;50.118;9.900;2023-06-10T11:51:34;4.95;;;3.15;;
17365;SDS011;8800;50.118;9.900;2023-06-10T11:54:02;6.38;;;2.90;;
17365;SDS011;8800;50.118;9.900;2023-06-10T11:56:30;4.00;;;2.78;;
17365;SDS011;8800;50.118;9.900;2023-06-10T11:58:57;3.67;;;2.75;;
17365;SDS011;8800;50.118;9.900;2023-06-10T12:01:26;3.78;;;2.97;;
17365;SDS011;8800;50.118;9.900;2023-06-10T12:03:59;4.55;;;2.92;;
17365;SDS011;8800;50.118;9.900;2023-06-10T12:06:26;4.80;;;3.00;;
17365;SDS011;8800;50.118;9.900;2023-06-10T12:08:53;4.53;;;3.45;;
17365;SDS011;8800;50.118;9.900;2023-06-10T12:11:20;5.22;;;3.17;;
17365;SDS011;8800;50.118;9.900;2023-06-10T12:13:49;12.73;;;3.85;;
17365;SDS011;8800;50.118;9.900;2023-06-10T12:16:15;4.47;;;3.35;;
17365;SDS011;8800;50.118;9.900;2023-06-10T12:18:43;6.88;;;3.58;;
17365;SDS011;8800;50.118;9.900;2023-06-10T12:21:16;5.57;;;3.30;;
17365;SDS011;8800;50.118;9.900;2023-06-10T12:26:33;5.63;;;3.00;;
17365;SDS011;8800;50.118;9.900;2023-06-10T12:29:02;5.43;;;3.53;;
17365;SDS011;8800;50.118;9.900;2023-06-10T12:34:27;3.95;;;3.25;;
17365;SDS011;8800;50.118;9.900;2023-06-10T12:36:54;4.63;;;3.03;;
17365;SDS011;8800;50.118;9.900;2023-06-10T12:39:20;3.55;;;3.25;;
17365;SDS011;8800;50.118;9.900;2023-06-10T12:41:47;4.75;;;3.15;;
17365;SDS011;8800;50.118;9.900;2023-06-10T12:44:16;4.53;;;3.55;;
17365;SDS011;8800;50.118;9.900;2023-06-10T12:46:43;7.88;;;3.28;;
17365;SDS011;8800;50.118;9.900;2023-06-10T12:49:18;4.63;;;3.30;;
17365;SDS011;8800;50.118;9.900;2023-06-10T12:51:45;3.05;;;2.75;;
17365;SDS011;8800;50.118;9.900;2023-06-10T12:54:11;4.53;;;3.38;;
17365;SDS011;8800;50.118;9.900;2023-06-10T12:56:39;3.90;;;2.90;;
17365;SDS011;8800;50.118;9.900;2023-06-10T12:59:05;4.35;;;3.40;;
17365;SDS011;8800;50.118;9.900;2023-06-10T13:01:33;5.13;;;3.33;;
17365;SDS011;8800;50.118;9.900;2023-06-10T13:04:00;4.45;;;3.10;;
17365;SDS011;8800;50.118;9.900;2023-06-10T13:06:27;4.85;;;3.40;;
17365;SDS011;8800;50.118;9.900;2023-06-10T13:08:54;4.28;;;3.40;;
17365;SDS011;8800;50.118;9.900;2023-06-10T13:11:21;4.25;;;3.13;;
17365;SDS011;8800;50.118;9.900;2023-06-10T13:13:50;5.13;;;3.40;;
17365;SDS011;8800;50.118;9.900;2023-06-10T13:16:17;5.63;;;3.00;;
17365;SDS011;8800;50.118;9.900;2023-06-10T13:18:45;5.15;;;3.08;;
17365;SDS011;8800;50.118;9.900;2023-06-10T13:21:11;5.68;;;2.90;;
17365;SDS011;8800;50.118;9.900;2023-06-10T13:23:38;4.55;;;3.20;;
17365;SDS011;8800;50.118;9.900;2023-06-10T13:26:04;5.30;;;2.92;;
17365;SDS011;8800;50.118;9.900;2023-06-10T13:28:31;3.97;;;2.97;;
17365;SDS011;8800;50.118;9.900;2023-06-10T13:30:57;5.82;;;3.40;;
17365;SDS011;8800;50.118;9.900;2023-06-10T13:33:24;5.03;;;3.47;;
17365;SDS011;8800;50.118;9.900;2023-06-10T13:35:52;5.00;;;3.20;;
17365;SDS011;8800;50.118;9.900;2023-06-10T13:38:18;3.60;;;3.00;;
17365;SDS011;8800;50.118;9.900;2023-06-10T13:40:45;4.15;;;3.40;;
17365;SDS011;8800;50.118;9.900;2023-06-10T13:43:11;4.63;;;3.25;;
17365;SDS011;8800;50.118;9.900;2023-06-10T13:45:38;4.35;;;3.33;;
17365;SDS011;8800;50.118;9.900;2023-06-10T13:48:05;7.68;;;3.85;;
17365;SDS011;8800;50.118;9.900;2023-06-10T13:50:32;4.28;;;3.22;;
17365;SDS011;8800;50.118;9.900;2023-06-10T13:53:00;3.85;;;3.20;;
17365;SDS011;8800;50.118;9.900;2023-06-10T13:55:26;3.45;;;3.00;;
17365;SDS011;8800;50.118;9.900;2023-06-10T13:57:53;4.63;;;3.13;;
17365;SDS011;8800;50.118;9.900;2023-06-10T14:00:20;6.03;;;3.63;;
17365;SDS011;8800;50.118;9.900;2023-06-10T14:02:46;5.57;;;3.35;;
17365;SDS011;8800;50.118;9.900;2023-06-10T14:05:13;8.88;;;3.60;;
17365;SDS011;8800;50.118;9.900;2023-06-10T14:07:39;5.00;;;3.65;;
17365;SDS011;8800;50.118;9.900;2023-06-10T14:10:08;6.25;;;3.30;;
17365;SDS011;8800;50.118;9.900;2023-06-10T14:12:35;4.15;;;3.40;;
17365;SDS011;8800;50.118;9.900;2023-06-10T14:15:01;4.30;;;3.70;;
17365;SDS011;8800;50.118;9.900;2023-06-10T14:17:28;4.47;;;3.30;;
17365;SDS011;8800;50.118;9.900;2023-06-10T14:19:54;5.32;;;3.58;;
17365;SDS011;8800;50.118;9.900;2023-06-10T14:22:21;5.03;;;3.45;;
17365;SDS011;8800;50.118;9.900;2023-06-10T14:24:47;4.28;;;3.53;;
17365;SDS011;8800;50.118;9.900;2023-06-10T14:27:15;5.53;;;3.78;;
17365;SDS011;8800;50.118;9.900;2023-06-10T14:29:42;5.20;;;3.80;;
17365;SDS011;8800;50.118;9.900;2023-06-10T14:32:08;5.88;;;3.85;;
17365;SDS011;8800;50.118;9.900;2023-06-10T14:34:35;5.47;;;3.63;;
17365;SDS011;8800;50.118;9.900;2023-06-10T14:37:01;5.65;;;3.78;;
17365;SDS011;8800;50.118;9.900;2023-06-10T14:39:29;6.47;;;3.58;;
17365;SDS011;8800;50.118;9.900;2023-06-10T14:41:55;4.43;;;3.00;;
17365;SDS011;8800;50.118;9.900;2023-06-10T14:44:24;4.63;;;4.10;;
17365;SDS011;8800;50.118;9.900;2023-06-10T14:46:51;4.82;;;3.90;;
17365;SDS011;8800;50.118;9.900;2023-06-10T14:49:17;7.43;;;4.25;;
17365;SDS011;8800;50.118;9.900;2023-06-10T14:51:44;6.75;;;4.43;;
17365;SDS011;8800;50.118;9.900;2023-06-10T14:54:11;6.45;;;4.53;;
17365;SDS011;8800;50.118;9.900;2023-06-10T14:56:37;5.05;;;4.55;;
17365;SDS011;8800;50.118;9.900;2023-06-10T14:59:04;7.95;;;4.78;;
17365;SDS011;8800;50.118;9.900;2023-06-10T15:01:32;5.30;;;4.68;;